createdAt,value
2022-09-02T00:04:38.581Z,11.08
2022-09-02T00:09:40.648Z,10.91
2022-09-02T00:14:42.330Z,10.83
2022-09-02T00:19:44.018Z,10.72
2022-09-02T00:24:45.687Z,10.71
2022-09-02T00:29:47.521Z,10.80
2022-09-02T00:34:49.210Z,10.78
2022-09-02T00:39:51.976Z,10.80
2022-09-02T00:44:53.746Z,10.78
2022-09-02T00:49:55.459Z,10.75
2022-09-02T00:55:04.705Z,10.33
2022-09-02T01:00:18.555Z,10.21
2022-09-02T01:05:23.431Z,10.43
2022-09-02T01:10:29.120Z,10.30
2022-09-02T01:15:31.220Z,10.40
2022-09-02T01:20:33.017Z,10.33
2022-09-02T01:25:35.759Z,10.24
2022-09-02T01:30:42.159Z,10.48
2022-09-02T01:35:45.269Z,10.23
2022-09-02T01:40:47.651Z,10.33
2022-09-02T01:45:52.659Z,10.26
2022-09-02T01:50:58.833Z,9.97
2022-09-02T01:56:00.760Z,9.94
2022-09-02T02:01:08.060Z,9.94
2022-09-02T02:06:16.434Z,9.91
2022-09-02T02:11:24.782Z,9.82
2022-09-02T02:16:36.845Z,9.89
2022-09-02T02:21:38.617Z,9.94
2022-09-02T02:26:41.239Z,10.00
2022-09-02T02:31:45.535Z,9.69
2022-09-02T02:36:47.933Z,9.53
2022-09-02T02:41:49.849Z,9.59
2022-09-02T02:46:52.034Z,9.33
2022-09-02T02:51:54.427Z,9.22
2022-09-02T02:56:58.187Z,9.45
2022-09-02T03:02:00.116Z,9.43
2022-09-02T03:07:03.140Z,9.37
2022-09-02T03:12:05.528Z,9.34
2022-09-02T03:17:09.111Z,9.46
2022-09-02T03:22:11.113Z,9.46
2022-09-02T03:27:13.017Z,9.08
2022-09-02T03:32:15.031Z,9.40
2022-09-02T03:37:18.557Z,9.54
2022-09-02T03:42:20.402Z,9.46
2022-09-02T03:47:25.537Z,9.20
2022-09-02T03:52:28.205Z,9.04
2022-09-02T03:57:29.959Z,8.94
2022-09-02T04:02:32.360Z,9.02
2022-09-02T04:07:34.913Z,9.15
2022-09-02T04:12:37.455Z,9.13
2022-09-02T04:17:41.861Z,9.21
2022-09-02T04:22:45.955Z,8.96
2022-09-02T04:27:47.965Z,8.90
2022-09-02T04:32:50.854Z,8.98
2022-09-02T04:37:52.575Z,9.19
2022-09-02T04:42:55.670Z,9.27
2022-09-02T04:47:58.742Z,9.39
2022-09-02T04:53:01.775Z,9.22
2022-09-02T04:58:05.751Z,9.22
2022-09-02T05:03:08.178Z,9.55
2022-09-02T05:08:13.219Z,9.57
2022-09-02T05:13:16.456Z,9.60
2022-09-02T05:18:21.031Z,9.35
2022-09-02T05:23:23.365Z,9.45
2022-09-02T05:28:25.414Z,9.66
2022-09-02T05:33:27.810Z,9.78
2022-09-02T05:38:29.734Z,9.94
2022-09-02T05:43:32.364Z,10.10
2022-09-02T05:48:58.192Z,10.89
2022-09-02T05:54:01.490Z,11.98
2022-09-02T05:59:03.811Z,12.27
2022-09-02T06:04:07.746Z,13.81
2022-09-02T06:09:14.817Z,14.50
2022-09-02T06:14:25.078Z,14.52
2022-09-02T06:19:32.694Z,14.44
2022-09-02T06:24:36.960Z,13.61
2022-09-02T06:29:44.250Z,14.21
2022-09-02T06:34:45.988Z,14.90
2022-09-02T06:39:48.542Z,15.87
2022-09-02T06:44:56.586Z,17.21
2022-09-02T06:50:00.092Z,21.12
2022-09-02T06:55:02.325Z,20.64
2022-09-02T07:00:06.639Z,18.87
2022-09-02T07:05:09.848Z,17.43
2022-09-02T07:10:13.859Z,17.10
2022-09-02T07:15:19.042Z,16.92
2022-09-02T07:20:20.886Z,17.86
2022-09-02T07:25:27.845Z,20.09
2022-09-02T07:30:31.683Z,22.09
2022-09-02T07:35:43.557Z,21.25
2022-09-02T07:40:47.112Z,23.65
2022-09-02T07:45:51.063Z,27.38
2022-09-02T07:50:53.052Z,29.85
2022-09-02T07:55:54.834Z,27.54
2022-09-02T08:00:57.788Z,26.10
2022-09-02T08:06:00.815Z,27.25
2022-09-02T08:11:03.085Z,26.89
2022-09-02T08:16:05.033Z,28.22
2022-09-02T08:21:06.780Z,27.24
2022-09-02T08:26:08.477Z,28.26
2022-09-02T08:31:10.840Z,29.90
2022-09-02T08:36:15.120Z,26.60
2022-09-02T08:41:21.931Z,31.91
2022-09-02T08:46:26.559Z,29.62
2022-09-02T08:51:42.962Z,31.82
2022-09-02T08:56:44.656Z,31.00
2022-09-02T09:01:53.559Z,30.82
2022-09-02T09:07:02.336Z,31.21
2022-09-02T09:12:40.019Z,32.51
2022-09-02T09:17:51.836Z,32.23
2022-09-02T09:22:57.116Z,29.99
2022-09-02T09:28:00.454Z,30.46
2022-09-02T09:33:02.799Z,31.46
2022-09-02T09:38:12.838Z,26.69
2022-09-02T09:43:15.936Z,32.07
2022-09-02T09:48:19.828Z,29.46
2022-09-02T09:53:25.888Z,28.66
2022-09-02T09:58:34.249Z,26.26
2022-09-02T10:03:36.127Z,24.16
2022-09-02T10:08:51.307Z,24.12
2022-09-02T10:13:59.863Z,27.88
2022-09-02T10:19:11.215Z,29.47
2022-09-02T10:24:35.293Z,28.89
2022-09-02T10:29:57.171Z,32.14
2022-09-02T10:35:23.081Z,30.91
2022-09-02T10:40:41.776Z,31.24
2022-09-02T10:45:50.145Z,25.63
2022-09-02T10:51:15.762Z,25.18
2022-09-02T10:56:21.772Z,26.43
2022-09-02T11:01:32.735Z,29.86
2022-09-02T11:07:01.861Z,26.94
2022-09-02T11:12:16.359Z,27.10
2022-09-02T11:17:35.704Z,25.98
2022-09-02T11:22:54.302Z,24.28
2022-09-02T11:28:45.774Z,24.10
2022-09-02T11:39:51.509Z,22.78
2022-09-02T11:45:23.019Z,23.96
2022-09-02T11:50:43.080Z,24.24
2022-09-02T11:56:02.458Z,24.56
2022-09-02T12:01:25.934Z,23.12
2022-09-02T12:06:28.216Z,23.05
2022-09-02T12:11:41.787Z,22.31
2022-09-02T12:17:00.780Z,21.98
2022-09-02T12:22:17.706Z,22.18
2022-09-02T12:27:29.161Z,22.25
2022-09-02T12:32:45.842Z,22.07
2022-09-02T12:38:15.369Z,24.21
2022-09-02T12:43:26.598Z,24.04
2022-09-02T12:48:40.671Z,22.36
2022-09-02T12:53:50.409Z,22.16
2022-09-02T12:59:01.594Z,22.23
2022-09-02T13:04:12.063Z,21.60
2022-09-02T13:09:39.052Z,21.21
2022-09-02T13:14:58.635Z,21.79
2022-09-02T13:20:32.541Z,23.08
2022-09-02T13:25:56.688Z,24.24
2022-09-02T13:31:27.637Z,23.85
2022-09-02T13:36:43.275Z,25.61
2022-09-02T13:41:45.379Z,26.09
2022-09-02T13:46:57.280Z,24.66
2022-09-02T13:51:58.977Z,25.09
2022-09-02T13:57:10.310Z,23.63
2022-09-02T14:02:32.368Z,22.76
2022-09-02T14:07:51.583Z,22.48
2022-09-02T14:12:55.360Z,22.02
2022-09-02T14:18:08.414Z,22.45
2022-09-02T14:23:17.110Z,22.69
2022-09-02T14:28:23.060Z,21.78
2022-09-02T14:33:28.090Z,21.75
2022-09-02T14:38:54.461Z,21.95
2022-09-02T14:44:34.378Z,22.27
2022-09-02T14:49:46.962Z,21.52
2022-09-02T14:54:51.442Z,22.16
2022-09-02T14:59:53.112Z,22.06
2022-09-02T15:04:56.311Z,22.50
2022-09-02T15:09:58.251Z,22.18
2022-09-02T15:15:00.599Z,21.88
2022-09-02T15:20:02.503Z,21.98
2022-09-02T15:25:07.930Z,21.55
2022-09-02T15:30:10.309Z,21.35
2022-09-02T15:35:12.003Z,21.31
2022-09-02T15:40:13.679Z,21.66
2022-09-02T15:45:15.668Z,21.66
2022-09-02T15:50:17.963Z,21.17
2022-09-02T15:55:26.803Z,21.11
2022-09-02T16:00:35.053Z,21.04
2022-09-02T16:05:37.196Z,20.93
2022-09-02T16:10:40.251Z,20.91
2022-09-02T16:15:41.883Z,20.59
2022-09-02T16:20:43.519Z,20.22
2022-09-02T16:25:45.142Z,19.96
2022-09-02T16:30:46.866Z,19.57
2022-09-02T16:35:49.203Z,19.35
2022-09-02T16:40:51.934Z,19.31
2022-09-02T16:45:55.593Z,18.66
2022-09-02T16:51:01.872Z,18.78
2022-09-02T16:56:04.462Z,18.58
2022-09-02T17:01:07.511Z,18.44
2022-09-02T17:06:09.183Z,18.32
2022-09-02T17:11:19.052Z,18.15
2022-09-02T17:16:22.950Z,18.21
2022-09-02T17:21:42.596Z,18.17
2022-09-02T17:26:47.428Z,17.84
2022-09-02T17:31:49.407Z,17.69
2022-09-02T17:36:51.115Z,17.55
2022-09-02T17:41:55.701Z,17.48
2022-09-02T17:46:57.477Z,17.34
2022-09-02T17:52:00.168Z,16.99
2022-09-02T17:57:09.693Z,16.62
2022-09-02T18:02:55.441Z,16.65
2022-09-02T18:08:18.185Z,16.68
2022-09-02T18:13:27.450Z,16.73
2022-09-02T18:18:29.100Z,16.72
2022-09-02T18:24:06.155Z,16.77
2022-09-02T18:29:45.732Z,16.79
2022-09-02T18:35:51.906Z,16.87
2022-09-02T18:41:07.252Z,16.88
2022-09-02T18:46:11.868Z,16.80
2022-09-02T18:51:35.786Z,16.91
2022-09-02T18:56:44.765Z,16.91
2022-09-02T19:01:50.610Z,16.81
2022-09-02T19:07:12.757Z,16.70
2022-09-02T19:12:14.476Z,16.66
2022-09-02T19:17:17.287Z,16.62
2022-09-02T19:22:23.877Z,16.54
2022-09-02T19:27:31.714Z,16.54
2022-09-02T19:32:35.688Z,16.67
2022-09-02T19:37:44.575Z,16.37
2022-09-02T19:42:46.715Z,16.66
2022-09-02T19:48:06.405Z,16.52
2022-09-02T19:53:22.857Z,16.40
2022-09-02T19:58:24.714Z,16.47
2022-09-02T20:03:26.636Z,16.29
2022-09-02T20:08:31.277Z,16.27
2022-09-02T20:13:40.054Z,16.23
2022-09-02T20:18:46.256Z,16.06
2022-09-02T20:23:47.980Z,16.17
2022-09-02T20:29:20.496Z,15.98
2022-09-02T20:34:45.226Z,15.96
2022-09-02T20:40:11.343Z,15.69
2022-09-02T20:45:38.406Z,15.83
2022-09-02T20:50:53.655Z,15.75
2022-09-02T20:56:25.160Z,15.63
2022-09-02T21:01:31.327Z,15.37
2022-09-02T21:06:44.354Z,15.30
2022-09-02T21:12:03.967Z,15.24
2022-09-02T21:17:43.300Z,15.15
2022-09-02T21:22:55.456Z,14.95
2022-09-02T21:28:05.599Z,14.77
2022-09-02T21:33:11.637Z,14.71
2022-09-02T21:38:23.949Z,14.43
2022-09-02T21:43:45.959Z,14.44
2022-09-02T21:49:32.230Z,14.23
2022-09-02T21:54:51.888Z,13.98
2022-09-02T22:00:11.802Z,13.93
2022-09-02T22:05:31.588Z,13.74
2022-09-02T22:10:41.454Z,13.58
2022-09-02T22:15:47.801Z,13.69
2022-09-02T22:20:53.854Z,13.57
2022-09-02T22:26:11.219Z,13.59
2022-09-02T22:31:18.018Z,13.28
2022-09-02T22:36:48.969Z,13.08
2022-09-02T22:42:04.282Z,13.50
2022-09-02T22:47:28.056Z,13.43
2022-09-02T22:52:47.405Z,13.36
2022-09-02T22:58:02.594Z,13.19
2022-09-02T23:03:20.661Z,12.97
2022-09-02T23:08:22.835Z,12.94
2022-09-02T23:14:07.075Z,12.90
2022-09-02T23:19:09.692Z,12.87
2022-09-02T23:24:25.506Z,13.09
2022-09-02T23:29:27.207Z,13.07
2022-09-02T23:34:38.809Z,13.04
2022-09-02T23:39:53.154Z,13.09
2022-09-02T23:45:03.759Z,13.38
2022-09-02T23:50:12.655Z,13.44
2022-09-02T23:55:32.239Z,13.52
